createdAt,value
2023-11-09T00:00:24.410Z,6.83
2023-11-09T00:02:55.979Z,5.33
2023-11-09T00:05:28.315Z,6.47
2023-11-09T00:07:58.038Z,3.65
2023-11-09T00:10:27.769Z,5.80
2023-11-09T00:13:00.075Z,5.97
2023-11-09T00:15:31.493Z,4.95
2023-11-09T00:18:04.638Z,5.07
2023-11-09T00:20:37.569Z,5.83
2023-11-09T00:23:07.278Z,4.93
2023-11-09T00:25:37.239Z,5.63
2023-11-09T00:28:08.476Z,5.40
2023-11-09T00:30:38.063Z,5.97
2023-11-09T00:33:07.767Z,4.53
2023-11-09T00:35:40.692Z,4.37
2023-11-09T00:38:12.025Z,5.27
2023-11-09T00:40:41.677Z,5.53
2023-11-09T00:43:11.525Z,5.63
2023-11-09T00:45:41.129Z,4.83
2023-11-09T00:48:11.097Z,3.60
2023-11-09T00:50:43.424Z,4.50
2023-11-09T00:53:13.178Z,4.38
2023-11-09T00:55:42.777Z,4.60
2023-11-09T00:58:12.604Z,5.07
2023-11-09T01:00:42.187Z,6.77
2023-11-09T01:03:11.928Z,3.40
2023-11-09T01:05:44.523Z,4.17
2023-11-09T01:08:14.337Z,4.45
2023-11-09T01:10:44.722Z,4.77
2023-11-09T01:13:14.373Z,4.37
2023-11-09T01:15:43.962Z,2.67
2023-11-09T01:18:13.558Z,4.80
2023-11-09T01:20:45.974Z,5.03
2023-11-09T01:23:15.567Z,4.07
2023-11-09T01:25:45.704Z,5.27
2023-11-09T01:28:15.454Z,4.50
2023-11-09T01:30:45.777Z,2.87
2023-11-09T01:33:15.520Z,5.43
2023-11-09T01:35:47.804Z,3.63
2023-11-09T01:38:17.701Z,4.07
2023-11-09T01:40:54.640Z,3.17
2023-11-09T01:43:26.396Z,4.17
2023-11-09T01:45:56.146Z,3.30
2023-11-09T01:48:26.994Z,4.57
2023-11-09T01:50:59.305Z,4.23
2023-11-09T01:53:29.199Z,7.40
2023-11-09T01:55:58.936Z,7.37
2023-11-09T01:58:29.182Z,4.27
2023-11-09T02:01:02.570Z,8.97
2023-11-09T02:03:33.166Z,4.33
2023-11-09T02:06:05.493Z,4.27
2023-11-09T02:08:36.227Z,5.18
2023-11-09T02:11:06.797Z,4.40
2023-11-09T02:13:37.269Z,4.40
2023-11-09T02:16:10.687Z,4.87
2023-11-09T02:18:40.378Z,5.67
2023-11-09T02:21:16.300Z,2.73
2023-11-09T02:23:47.464Z,5.20
2023-11-09T02:26:20.598Z,5.47
2023-11-09T02:28:52.031Z,3.27
2023-11-09T02:31:22.900Z,6.55
2023-11-09T02:33:52.625Z,4.47
2023-11-09T02:36:22.415Z,2.97
2023-11-09T02:38:52.292Z,8.20
2023-11-09T02:41:24.691Z,5.13
2023-11-09T02:43:54.330Z,3.28
2023-11-09T02:46:24.132Z,5.00
2023-11-09T02:48:54.215Z,6.33
2023-11-09T02:51:23.947Z,5.87
2023-11-09T02:53:54.773Z,4.80
2023-11-09T02:56:27.094Z,1.60
2023-11-09T02:58:56.813Z,2.85
2023-11-09T03:01:26.698Z,4.43
2023-11-09T03:03:56.432Z,3.13
2023-11-09T03:06:26.489Z,4.17
2023-11-09T03:08:56.032Z,5.70
2023-11-09T03:11:28.264Z,3.47
2023-11-09T03:13:57.845Z,3.72
2023-11-09T03:16:27.512Z,3.90
2023-11-09T03:18:57.138Z,4.10
2023-11-09T03:21:26.728Z,4.60
2023-11-09T03:23:56.684Z,2.67
2023-11-09T03:26:29.412Z,2.60
2023-11-09T03:28:59.215Z,4.72
2023-11-09T03:31:29.303Z,2.93
2023-11-09T03:33:59.313Z,2.73
2023-11-09T03:36:28.956Z,6.23
2023-11-09T03:38:58.674Z,3.60
2023-11-09T03:41:31.368Z,4.17
2023-11-09T03:44:01.224Z,3.75
2023-11-09T03:46:30.832Z,4.27
2023-11-09T03:49:00.533Z,4.87
2023-11-09T03:51:31.000Z,5.37
2023-11-09T03:54:00.572Z,6.27
2023-11-09T03:56:33.050Z,3.47
2023-11-09T03:59:02.628Z,4.03
2023-11-09T04:01:32.505Z,4.43
2023-11-09T04:04:03.374Z,2.97
2023-11-09T04:06:33.061Z,2.93
2023-11-09T04:09:06.677Z,3.53
2023-11-09T04:11:40.165Z,4.57
2023-11-09T04:14:09.751Z,3.30
2023-11-09T04:16:39.319Z,4.33
2023-11-09T04:19:09.468Z,3.50
2023-11-09T04:21:39.148Z,4.93
2023-11-09T04:24:09.867Z,4.40
2023-11-09T04:26:43.396Z,3.77
2023-11-09T04:29:12.986Z,5.17
2023-11-09T04:31:48.320Z,6.00
2023-11-09T04:34:18.044Z,5.73
2023-11-09T04:36:51.395Z,4.30
2023-11-09T04:39:29.466Z,3.30
2023-11-09T04:42:05.970Z,4.40
2023-11-09T04:44:37.938Z,3.40
2023-11-09T04:47:12.507Z,4.15
2023-11-09T04:49:47.202Z,4.10
2023-11-09T04:52:20.553Z,5.93
2023-11-09T04:55:08.602Z,3.83
2023-11-09T04:57:54.018Z,4.37
2023-11-09T05:00:36.113Z,5.93
2023-11-09T05:03:18.247Z,5.88
2023-11-09T05:06:05.451Z,5.20
2023-11-09T05:08:34.993Z,5.37
2023-11-09T05:11:04.800Z,5.33
2023-11-09T05:13:37.155Z,3.63
2023-11-09T05:16:07.445Z,3.20
2023-11-09T05:18:38.856Z,11.87
2023-11-09T05:21:08.593Z,4.50
2023-11-09T05:23:38.215Z,5.23
2023-11-09T05:26:07.822Z,7.87
2023-11-09T05:28:40.976Z,3.77
2023-11-09T05:31:12.151Z,6.00
2023-11-09T05:33:41.836Z,4.80
2023-11-09T05:36:12.085Z,4.93
2023-11-09T05:38:41.753Z,7.80
2023-11-09T05:41:11.955Z,5.37
2023-11-09T05:43:44.234Z,3.33
2023-11-09T05:46:13.832Z,6.28
2023-11-09T05:48:43.594Z,4.90
2023-11-09T05:51:13.223Z,5.93
2023-11-09T05:53:42.786Z,3.23
2023-11-09T05:56:12.308Z,4.10
2023-11-09T05:58:44.769Z,4.67
2023-11-09T06:01:15.316Z,5.18
2023-11-09T06:03:44.984Z,3.93
2023-11-09T06:06:14.596Z,4.80
2023-11-09T06:08:44.502Z,4.47
2023-11-09T06:11:14.903Z,5.00
2023-11-09T06:13:47.688Z,4.30
2023-11-09T06:18:47.524Z,7.03
2023-11-09T06:21:17.130Z,3.70
2023-11-09T06:23:46.679Z,6.13
2023-11-09T06:26:16.250Z,4.00
2023-11-09T06:28:48.386Z,4.47
2023-11-09T06:31:17.961Z,5.78
2023-11-09T06:33:47.615Z,4.27
2023-11-09T06:36:17.585Z,5.37
2023-11-09T06:38:47.816Z,7.03
2023-11-09T06:41:17.540Z,4.37
2023-11-09T06:43:49.801Z,5.50
2023-11-09T06:46:19.426Z,3.92
2023-11-09T06:48:50.085Z,3.63
2023-11-09T06:51:19.684Z,4.70
2023-11-09T06:53:49.397Z,3.40
2023-11-09T06:56:19.035Z,6.87
2023-11-09T06:58:51.202Z,5.33
2023-11-09T07:01:20.757Z,7.82
2023-11-09T07:03:52.515Z,5.73
2023-11-09T07:06:23.497Z,5.83
2023-11-09T07:08:53.390Z,6.73
2023-11-09T07:11:22.967Z,3.03
2023-11-09T07:13:55.095Z,5.03
2023-11-09T07:16:24.783Z,5.38
2023-11-09T07:18:54.501Z,5.47
2023-11-09T07:21:24.987Z,3.67
2023-11-09T07:24:00.833Z,5.57
2023-11-09T07:26:36.741Z,5.78
2023-11-09T07:29:08.862Z,7.30
2023-11-09T07:31:38.476Z,6.50
2023-11-09T07:34:08.206Z,4.10
2023-11-09T07:36:37.876Z,5.90
2023-11-09T07:39:07.639Z,5.50
2023-11-09T07:41:38.057Z,6.43
2023-11-09T07:44:10.351Z,7.57
2023-11-09T07:46:39.941Z,5.88
2023-11-09T07:49:11.907Z,5.67
2023-11-09T07:51:41.815Z,4.85
2023-11-09T07:54:11.628Z,5.63
2023-11-09T07:56:41.571Z,5.67
2023-11-09T07:59:15.173Z,5.47
2023-11-09T08:01:44.810Z,7.73
2023-11-09T08:04:14.433Z,5.37
2023-11-09T08:06:44.180Z,4.20
2023-11-09T08:09:17.037Z,5.77
2023-11-09T08:11:47.090Z,4.27
2023-11-09T08:14:19.278Z,6.60
2023-11-09T08:17:01.817Z,4.03
2023-11-09T08:19:31.516Z,5.05
2023-11-09T08:22:03.540Z,7.13
2023-11-09T08:24:33.899Z,5.88
2023-11-09T08:27:03.499Z,6.53
2023-11-09T08:29:36.522Z,2.30
2023-11-09T08:32:06.687Z,4.97
2023-11-09T08:34:36.496Z,4.83
2023-11-09T08:37:07.745Z,5.70
2023-11-09T08:39:38.768Z,5.33
2023-11-09T08:42:09.332Z,6.37
2023-11-09T08:44:43.141Z,3.77
2023-11-09T08:47:12.837Z,5.53
2023-11-09T08:49:42.458Z,6.87
2023-11-09T08:52:12.299Z,4.00
2023-11-09T08:54:43.147Z,5.90
2023-11-09T08:57:12.685Z,4.00
2023-11-09T08:59:45.064Z,3.07
2023-11-09T09:02:14.668Z,3.65
2023-11-09T09:04:44.510Z,4.23
2023-11-09T09:07:14.166Z,4.83
2023-11-09T09:09:47.013Z,3.00
2023-11-09T09:12:16.981Z,3.33
2023-11-09T09:14:52.418Z,5.80
2023-11-09T09:17:21.993Z,3.60
2023-11-09T09:19:52.598Z,4.17
2023-11-09T09:22:22.261Z,3.80
2023-11-09T09:24:51.935Z,4.43
2023-11-09T09:27:21.485Z,4.57
2023-11-09T09:29:53.715Z,4.77
2023-11-09T09:32:25.212Z,5.53
2023-11-09T09:34:56.266Z,4.43
2023-11-09T09:37:25.891Z,4.07
2023-11-09T09:39:55.596Z,4.20
2023-11-09T09:42:26.597Z,3.07
2023-11-09T09:45:00.122Z,3.90
2023-11-09T09:47:31.772Z,4.67
2023-11-09T09:50:02.539Z,6.37
2023-11-09T09:52:32.913Z,3.23
2023-11-09T09:55:02.473Z,3.60
2023-11-09T09:57:32.246Z,10.10
2023-11-09T10:00:08.915Z,6.00
2023-11-09T10:02:42.916Z,4.20
2023-11-09T10:05:15.313Z,4.07
2023-11-09T10:08:03.286Z,3.92
2023-11-09T10:10:33.832Z,3.67
2023-11-09T10:13:07.638Z,3.43
2023-11-09T10:15:41.369Z,3.20
2023-11-09T10:18:12.963Z,3.30
2023-11-09T10:20:43.006Z,3.67
2023-11-09T10:23:15.892Z,2.70
2023-11-09T10:25:45.876Z,4.20
2023-11-09T10:28:16.295Z,6.07
2023-11-09T10:30:49.869Z,3.03
2023-11-09T10:33:22.801Z,5.97
2023-11-09T10:35:54.199Z,3.47
2023-11-09T10:38:25.623Z,2.60
2023-11-09T10:41:14.979Z,3.23
2023-11-09T10:43:46.641Z,4.10
2023-11-09T10:46:20.398Z,2.57
2023-11-09T10:48:53.583Z,2.67
2023-11-09T10:51:26.123Z,1.70
2023-11-09T10:54:00.826Z,3.92
2023-11-09T10:56:34.013Z,2.40
2023-11-09T10:59:03.642Z,3.60
2023-11-09T11:01:37.487Z,2.27
2023-11-09T11:04:11.086Z,4.93
2023-11-09T11:06:52.327Z,2.70
2023-11-09T11:09:27.514Z,1.70
2023-11-09T11:12:03.238Z,2.13
2023-11-09T11:14:35.548Z,2.80
2023-11-09T11:17:25.509Z,6.03
2023-11-09T11:20:36.025Z,4.03
2023-11-09T11:23:21.680Z,2.73
2023-11-09T11:25:57.590Z,4.17
2023-11-09T11:28:28.954Z,1.83
2023-11-09T11:31:05.498Z,3.50
2023-11-09T11:33:38.533Z,4.20
2023-11-09T11:36:09.236Z,3.57
2023-11-09T11:38:41.331Z,3.03
2023-11-09T11:41:23.787Z,1.95
2023-11-09T11:43:58.222Z,6.47
2023-11-09T11:46:28.432Z,2.30
2023-11-09T11:49:01.052Z,4.20
2023-11-09T11:51:33.438Z,3.67
2023-11-09T11:54:11.128Z,5.00
2023-11-09T11:56:42.608Z,3.53
2023-11-09T11:59:13.429Z,2.57
2023-11-09T12:01:44.805Z,2.97
2023-11-09T12:04:18.746Z,3.60
2023-11-09T12:06:53.983Z,3.20
2023-11-09T12:09:23.767Z,5.47
2023-11-09T12:11:56.716Z,3.07
2023-11-09T12:14:26.430Z,2.33
2023-11-09T12:16:56.205Z,5.53
2023-11-09T12:19:28.437Z,2.93
2023-11-09T12:21:58.124Z,3.22
2023-11-09T12:24:29.709Z,2.23
2023-11-09T12:27:09.000Z,3.03
2023-11-09T12:29:40.025Z,2.30
2023-11-09T12:32:11.213Z,3.90
2023-11-09T12:34:45.089Z,3.70
2023-11-09T12:37:18.092Z,3.43
2023-11-09T12:39:49.789Z,3.47
2023-11-09T12:42:26.414Z,4.77
2023-11-09T12:44:57.872Z,2.07
2023-11-09T12:47:27.938Z,4.97
2023-11-09T12:50:06.089Z,3.80
2023-11-09T12:52:36.720Z,2.37
2023-11-09T12:55:08.553Z,3.57
2023-11-09T12:57:43.299Z,1.23
2023-11-09T13:00:22.006Z,2.53
2023-11-09T13:02:58.224Z,2.10
2023-11-09T13:05:34.022Z,3.23
2023-11-09T13:08:10.988Z,2.87
2023-11-09T13:10:45.086Z,4.77
2023-11-09T13:13:26.261Z,3.03
2023-11-09T13:15:58.216Z,3.17
2023-11-09T13:18:30.412Z,2.95
2023-11-09T13:21:02.729Z,3.88
2023-11-09T13:23:40.451Z,2.40
2023-11-09T13:26:10.275Z,2.30
2023-11-09T13:28:41.850Z,3.53
2023-11-09T13:31:20.496Z,2.87
2023-11-09T13:33:50.591Z,2.23
2023-11-09T13:36:39.047Z,2.27
2023-11-09T13:39:32.987Z,2.10
2023-11-09T13:42:12.258Z,2.83
2023-11-09T13:44:43.577Z,2.80
2023-11-09T13:47:14.401Z,1.80
2023-11-09T13:49:44.091Z,3.93
2023-11-09T13:52:32.735Z,2.60
2023-11-09T13:55:14.613Z,2.77
2023-11-09T13:57:43.994Z,2.20
2023-11-09T14:00:32.946Z,2.10
2023-11-09T14:03:02.744Z,2.37
2023-11-09T14:05:32.417Z,2.23
2023-11-09T14:08:16.535Z,2.43
2023-11-09T14:10:49.668Z,2.57
2023-11-09T14:13:29.884Z,4.17
2023-11-09T14:16:13.068Z,3.83
2023-11-09T14:21:24.982Z,2.77
2023-11-09T14:23:58.287Z,3.43
2023-11-09T14:26:28.784Z,1.33
2023-11-09T14:29:02.706Z,1.37
2023-11-09T14:31:37.985Z,1.10
2023-11-09T14:34:11.941Z,3.80
2023-11-09T14:36:43.592Z,3.00
2023-11-09T14:39:32.604Z,3.63
2023-11-09T14:42:07.337Z,2.13
2023-11-09T14:44:38.078Z,2.57
2023-11-09T14:47:11.989Z,1.93
2023-11-09T14:49:50.590Z,2.93
2023-11-09T14:52:22.305Z,3.47
2023-11-09T14:54:58.684Z,1.50
2023-11-09T14:57:29.439Z,2.13
2023-11-09T14:59:59.074Z,3.63
2023-11-09T15:02:29.248Z,2.20
2023-11-09T15:04:59.114Z,3.50
2023-11-09T15:07:28.713Z,1.90
2023-11-09T15:10:01.618Z,2.60
2023-11-09T15:12:36.144Z,5.83
2023-11-09T15:15:09.464Z,3.97
2023-11-09T15:17:39.463Z,2.60
2023-11-09T15:20:16.938Z,3.30
2023-11-09T15:22:47.641Z,3.33
2023-11-09T15:25:19.914Z,4.40
2023-11-09T15:27:50.345Z,3.05
2023-11-09T15:30:24.763Z,2.80
2023-11-09T15:32:55.291Z,2.60
2023-11-09T15:35:27.452Z,1.00
2023-11-09T15:38:01.307Z,2.53
2023-11-09T15:41:10.825Z,4.20
2023-11-09T15:43:24.060Z,3.17
2023-11-09T15:45:56.700Z,2.23
2023-11-09T15:48:28.140Z,2.03
2023-11-09T15:50:57.706Z,3.50
2023-11-09T15:53:27.492Z,3.23
2023-11-09T15:55:59.753Z,2.27
2023-11-09T15:58:29.453Z,3.33
2023-11-09T16:01:02.433Z,3.10
2023-11-09T16:03:34.946Z,4.27
2023-11-09T16:06:04.568Z,2.27
2023-11-09T16:08:34.155Z,1.33
2023-11-09T16:11:08.752Z,2.57
2023-11-09T16:13:38.495Z,5.20
2023-11-09T16:16:08.253Z,3.83
2023-11-09T16:18:39.447Z,5.33
2023-11-09T16:21:09.722Z,4.47
2023-11-09T16:23:40.074Z,2.53
2023-11-09T16:26:12.729Z,2.27
2023-11-09T16:28:47.243Z,2.97
2023-11-09T16:31:17.807Z,3.53
2023-11-09T16:33:48.456Z,3.67
2023-11-09T16:36:18.328Z,2.07
2023-11-09T16:38:48.704Z,6.50
2023-11-09T16:41:21.932Z,4.77
2023-11-09T16:43:51.524Z,6.27
2023-11-09T16:46:24.874Z,6.10
2023-11-09T16:48:55.560Z,3.73
2023-11-09T16:51:25.156Z,4.23
2023-11-09T16:53:54.748Z,2.80
2023-11-09T16:56:27.427Z,5.27
2023-11-09T16:58:57.020Z,8.10
2023-11-09T17:01:26.624Z,5.97
2023-11-09T17:03:56.265Z,5.23
2023-11-09T17:06:26.681Z,4.37
2023-11-09T17:08:56.243Z,7.23
2023-11-09T17:11:29.668Z,5.23
2023-11-09T17:13:59.375Z,5.57
2023-11-09T17:16:29.121Z,4.53
2023-11-09T17:19:00.722Z,5.07
2023-11-09T17:21:30.288Z,6.10
2023-11-09T17:23:59.839Z,4.67
2023-11-09T17:26:32.314Z,7.53
2023-11-09T17:29:02.777Z,6.63
2023-11-09T17:31:32.379Z,4.23
2023-11-09T17:34:01.977Z,5.43
2023-11-09T17:36:28.965Z,5.90
2023-11-09T17:38:58.524Z,4.63
2023-11-09T17:41:28.115Z,6.33
2023-11-09T17:44:02.233Z,5.80
2023-11-09T17:46:31.888Z,6.77
2023-11-09T17:49:02.363Z,7.30
2023-11-09T17:51:32.412Z,6.40
2023-11-09T17:54:05.581Z,6.27
2023-11-09T17:56:35.200Z,6.23
2023-11-09T17:59:07.458Z,6.73
2023-11-09T18:01:37.407Z,7.75
2023-11-09T18:04:08.032Z,5.73
2023-11-09T18:06:38.865Z,7.20
2023-11-09T18:09:08.935Z,4.93
2023-11-09T18:11:44.027Z,9.63
2023-11-09T18:14:17.333Z,12.63
2023-11-09T18:16:50.456Z,7.15
2023-11-09T18:19:20.202Z,11.57
2023-11-09T18:21:50.575Z,9.27
2023-11-09T18:24:21.213Z,11.00
2023-11-09T18:26:50.769Z,5.77
2023-11-09T18:29:24.397Z,8.90
2023-11-09T18:31:54.071Z,10.63
2023-11-09T18:34:23.839Z,9.20
2023-11-09T18:36:53.791Z,9.43
2023-11-09T18:39:23.344Z,9.83
2023-11-09T18:41:53.150Z,8.33
2023-11-09T18:44:25.309Z,8.20
2023-11-09T18:46:54.956Z,7.68
2023-11-09T18:51:57.086Z,7.57
2023-11-09T18:54:26.704Z,8.27
2023-11-09T18:56:56.415Z,7.73
2023-11-09T18:59:28.571Z,10.83
2023-11-09T19:01:58.156Z,6.45
2023-11-09T19:07:00.390Z,11.48
2023-11-09T19:09:30.737Z,10.27
2023-11-09T19:12:00.289Z,6.90
2023-11-09T19:14:32.502Z,8.07
2023-11-09T19:17:05.681Z,9.40
2023-11-09T19:19:37.129Z,10.50
2023-11-09T19:24:40.606Z,10.65
2023-11-09T19:27:12.877Z,6.10
2023-11-09T19:29:45.177Z,9.73
2023-11-09T19:32:16.269Z,7.50
2023-11-09T19:34:45.886Z,6.70
2023-11-09T19:37:15.454Z,5.93
2023-11-09T19:39:46.462Z,8.40
2023-11-09T19:42:16.303Z,9.93
2023-11-09T19:44:48.893Z,6.23
2023-11-09T19:47:18.815Z,9.43
2023-11-09T19:49:48.455Z,8.83
2023-11-09T19:52:18.036Z,6.40
2023-11-09T19:54:47.673Z,8.87
2023-11-09T19:57:17.267Z,7.17
2023-11-09T19:59:49.390Z,7.80
2023-11-09T20:02:21.483Z,8.57
2023-11-09T20:04:53.049Z,6.70
2023-11-09T20:07:22.687Z,10.50
2023-11-09T20:09:52.255Z,8.70
2023-11-09T20:12:22.434Z,8.23
2023-11-09T20:14:54.608Z,9.23
2023-11-09T20:17:27.309Z,6.93
2023-11-09T20:22:26.270Z,7.23
2023-11-09T20:24:55.858Z,9.23
2023-11-09T20:27:25.569Z,5.97
2023-11-09T20:29:57.742Z,10.13
2023-11-09T20:32:29.517Z,6.38
2023-11-09T20:34:59.653Z,7.83
2023-11-09T20:37:29.384Z,8.20
2023-11-09T20:39:58.935Z,7.23
2023-11-09T20:42:29.390Z,5.07
2023-11-09T20:45:13.221Z,4.97
2023-11-09T20:47:43.095Z,7.73
2023-11-09T20:50:16.331Z,6.30
2023-11-09T20:52:51.224Z,8.77
2023-11-09T20:55:23.125Z,6.85
2023-11-09T20:57:54.152Z,8.20
2023-11-09T21:00:30.080Z,6.57
2023-11-09T21:02:59.884Z,6.77
2023-11-09T21:05:29.798Z,8.70
2023-11-09T21:08:00.324Z,5.23
2023-11-09T21:10:30.750Z,7.17
2023-11-09T21:13:00.437Z,7.13
2023-11-09T21:15:33.299Z,6.83
2023-11-09T21:18:03.037Z,11.80
2023-11-09T21:20:33.143Z,11.23
2023-11-09T21:23:03.950Z,11.27
2023-11-09T21:25:34.362Z,9.80
2023-11-09T21:28:04.099Z,5.47
2023-11-09T21:30:36.412Z,8.60
2023-11-09T21:33:06.293Z,6.53
2023-11-09T21:35:36.697Z,7.83
2023-11-09T21:38:06.296Z,7.63
2023-11-09T21:40:35.880Z,7.83
2023-11-09T21:43:05.440Z,5.80
2023-11-09T21:45:37.691Z,5.43
2023-11-09T21:48:07.771Z,16.23
2023-11-09T21:50:37.370Z,8.00
2023-11-09T21:53:14.621Z,9.20
2023-11-09T21:55:44.352Z,7.87
2023-11-09T21:58:13.923Z,8.07
2023-11-09T22:00:46.507Z,5.43
2023-11-09T22:03:17.182Z,6.70
2023-11-09T22:05:46.911Z,6.17
2023-11-09T22:08:16.481Z,6.53
2023-11-09T22:10:46.269Z,5.90
2023-11-09T22:13:16.060Z,4.63
2023-11-09T22:15:48.292Z,9.07
2023-11-09T22:18:18.024Z,5.30
2023-11-09T22:20:47.581Z,7.87
2023-11-09T22:23:17.142Z,4.57
2023-11-09T22:25:46.747Z,8.00
2023-11-09T22:28:16.327Z,4.47
2023-11-09T22:30:48.469Z,3.43
2023-11-09T22:33:19.379Z,9.15
2023-11-09T22:35:49.433Z,5.90
2023-11-09T22:38:19.037Z,6.57
2023-11-09T22:40:48.635Z,5.90
2023-11-09T22:43:19.124Z,6.03
2023-11-09T22:45:51.550Z,10.17
2023-11-09T22:48:21.533Z,9.90
2023-11-09T22:50:52.110Z,5.53
2023-11-09T22:53:21.785Z,8.80
2023-11-09T22:55:51.370Z,7.03
2023-11-09T22:58:20.933Z,7.17
2023-11-09T23:00:55.376Z,6.47
2023-11-09T23:03:25.108Z,5.90
2023-11-09T23:05:56.410Z,6.07
2023-11-09T23:08:26.452Z,5.47
2023-11-09T23:10:56.040Z,6.33
2023-11-09T23:13:25.658Z,5.53
2023-11-09T23:15:58.053Z,3.53
2023-11-09T23:18:29.644Z,2.63
2023-11-09T23:20:59.235Z,1.90
2023-11-09T23:23:28.939Z,3.97
2023-11-09T23:25:58.487Z,3.10
2023-11-09T23:28:28.238Z,2.23
2023-11-09T23:31:00.552Z,3.13
2023-11-09T23:33:35.850Z,2.80
2023-11-09T23:36:05.511Z,3.85
2023-11-09T23:38:35.062Z,2.93
2023-11-09T23:41:04.622Z,3.00
2023-11-09T23:43:34.269Z,3.67
2023-11-09T23:46:07.916Z,1.83
2023-11-09T23:48:37.924Z,2.80
2023-11-09T23:51:07.857Z,3.63
2023-11-09T23:53:38.851Z,5.83
2023-11-09T23:56:09.880Z,1.53
2023-11-09T23:58:39.417Z,1.77
